createdAt,value
2023-05-12T00:00:16.619Z,45.14
2023-05-12T00:02:46.302Z,45.47
2023-05-12T00:05:13.827Z,45.63
2023-05-12T00:07:41.248Z,45.73
2023-05-12T00:10:09.014Z,46.07
2023-05-12T00:12:36.552Z,45.50
2023-05-12T00:15:04.270Z,46.21
2023-05-12T00:17:32.750Z,46.45
2023-05-12T00:20:00.280Z,46.38
2023-05-12T00:22:27.907Z,46.37
2023-05-12T00:24:55.393Z,46.00
2023-05-12T00:27:23.032Z,46.41
2023-05-12T00:29:50.528Z,46.21
2023-05-12T00:32:18.085Z,46.35
2023-05-12T00:34:45.525Z,46.71
2023-05-12T00:37:13.202Z,46.92
2023-05-12T00:39:40.614Z,47.39
2023-05-12T00:42:08.438Z,47.43
2023-05-12T00:44:36.965Z,47.77
2023-05-12T00:47:05.357Z,47.37
2023-05-12T00:49:33.186Z,48.01
2023-05-12T00:52:02.521Z,48.19
2023-05-12T00:54:31.381Z,48.68
2023-05-12T00:56:59.364Z,48.96
2023-05-12T00:59:27.469Z,48.72
2023-05-12T01:01:54.998Z,49.13
2023-05-12T01:04:23.597Z,49.52
2023-05-12T01:07:07.049Z,49.73
2023-05-12T01:09:34.624Z,48.98
2023-05-12T01:12:02.864Z,49.28
2023-05-12T01:14:32.465Z,49.88
2023-05-12T01:17:03.826Z,50.12
2023-05-12T01:19:46.220Z,49.83
2023-05-12T01:22:15.529Z,49.16
2023-05-12T01:25:08.738Z,50.31
2023-05-12T01:27:40.136Z,50.45
2023-05-12T01:30:09.760Z,50.28
2023-05-12T01:32:39.065Z,50.30
2023-05-12T01:35:07.512Z,50.50
2023-05-12T01:37:37.303Z,51.01
2023-05-12T01:40:06.613Z,51.25
2023-05-12T01:42:34.240Z,51.02
2023-05-12T01:45:02.072Z,51.13
2023-05-12T01:47:30.580Z,51.77
2023-05-12T01:50:09.447Z,51.77
2023-05-12T01:52:42.546Z,51.78
2023-05-12T01:55:13.146Z,52.06
2023-05-12T01:58:00.900Z,52.11
2023-05-12T02:00:28.824Z,52.36
2023-05-12T02:02:58.703Z,52.28
2023-05-12T02:05:26.660Z,52.30
2023-05-12T02:07:54.625Z,52.64
2023-05-12T02:10:22.737Z,52.39
2023-05-12T02:12:50.488Z,52.51
2023-05-12T02:15:18.316Z,52.53
2023-05-12T02:17:47.261Z,52.57
2023-05-12T02:20:17.113Z,52.30
2023-05-12T02:22:44.753Z,51.94
2023-05-12T02:25:12.270Z,52.05
2023-05-12T02:27:40.315Z,51.65
2023-05-12T02:30:09.562Z,51.55
2023-05-12T02:32:37.300Z,51.63
2023-05-12T02:35:07.813Z,51.55
2023-05-12T02:37:37.128Z,50.60
2023-05-12T02:40:06.321Z,51.25
2023-05-12T02:42:36.510Z,50.44
2023-05-12T02:45:05.837Z,50.09
2023-05-12T02:47:34.809Z,49.71
2023-05-12T02:50:02.749Z,49.37
2023-05-12T02:52:32.187Z,49.60
2023-05-12T02:54:59.884Z,49.01
2023-05-12T02:57:33.168Z,48.56
2023-05-12T03:00:07.541Z,48.58
2023-05-12T03:02:39.439Z,48.38
2023-05-12T03:05:09.490Z,46.22
2023-05-12T03:07:37.703Z,44.26
2023-05-12T03:10:05.788Z,43.71
2023-05-12T03:12:33.254Z,42.05
2023-05-12T03:15:00.866Z,40.52
2023-05-12T03:17:29.620Z,39.64
2023-05-12T03:19:57.210Z,37.94
2023-05-12T03:22:24.778Z,36.93
2023-05-12T03:24:52.440Z,36.88
2023-05-12T03:27:21.266Z,35.50
2023-05-12T03:29:49.036Z,34.44
2023-05-12T03:32:17.061Z,34.62
2023-05-12T03:34:44.654Z,33.96
2023-05-12T03:37:12.870Z,32.50
2023-05-12T03:39:40.462Z,32.22
2023-05-12T03:42:08.284Z,31.28
2023-05-12T03:44:35.852Z,30.01
2023-05-12T03:47:03.363Z,30.12
2023-05-12T03:49:30.979Z,29.30
2023-05-12T03:51:58.819Z,28.34
2023-05-12T03:54:26.318Z,27.52
2023-05-12T03:56:54.302Z,27.13
2023-05-12T03:59:22.798Z,27.22
2023-05-12T04:01:53.728Z,26.77
2023-05-12T04:04:21.217Z,26.55
2023-05-12T04:06:48.794Z,26.38
2023-05-12T04:09:16.911Z,25.83
2023-05-12T04:11:44.400Z,25.41
2023-05-12T04:14:11.791Z,24.76
2023-05-12T04:16:40.995Z,24.03
2023-05-12T04:19:08.448Z,23.41
2023-05-12T04:21:36.352Z,23.06
2023-05-12T04:24:04.110Z,22.44
2023-05-12T04:26:34.362Z,22.37
2023-05-12T04:29:01.860Z,21.94
2023-05-12T04:31:29.435Z,22.01
2023-05-12T04:33:58.179Z,21.46
2023-05-12T04:36:26.357Z,21.37
2023-05-12T04:38:56.063Z,20.97
2023-05-12T04:41:23.560Z,20.90
2023-05-12T04:46:22.400Z,20.88
2023-05-12T04:48:50.021Z,20.69
2023-05-12T04:51:18.820Z,20.43
2023-05-12T04:53:46.275Z,20.00
2023-05-12T04:56:14.939Z,20.27
2023-05-12T04:58:43.134Z,19.56
2023-05-12T05:01:12.583Z,19.49
2023-05-12T05:03:41.157Z,19.09
2023-05-12T05:06:08.888Z,19.19
2023-05-12T05:08:36.287Z,18.97
2023-05-12T05:11:04.715Z,19.18
2023-05-12T05:13:32.699Z,18.87
2023-05-12T05:16:00.320Z,19.02
2023-05-12T05:18:29.497Z,18.87
2023-05-12T05:20:59.092Z,18.64
2023-05-12T05:23:27.470Z,18.45
2023-05-12T05:25:55.612Z,18.15
2023-05-12T05:28:23.863Z,17.78
2023-05-12T05:30:51.441Z,17.71
2023-05-12T05:33:19.010Z,17.47
2023-05-12T05:35:48.251Z,17.76
2023-05-12T05:38:15.871Z,17.77
2023-05-12T05:40:53.066Z,17.65
2023-05-12T05:43:22.203Z,17.10
2023-05-12T05:45:50.283Z,17.29
2023-05-12T05:48:19.892Z,17.32
2023-05-12T05:50:47.998Z,17.42
2023-05-12T05:53:15.651Z,17.26
2023-05-12T05:55:43.586Z,16.93
2023-05-12T05:58:11.957Z,17.18
2023-05-12T06:00:39.620Z,16.88
2023-05-12T06:03:07.722Z,16.89
2023-05-12T06:05:35.733Z,16.95
2023-05-12T06:08:03.372Z,17.10
2023-05-12T06:10:32.507Z,17.00
2023-05-12T06:13:00.004Z,17.38
2023-05-12T06:15:27.476Z,17.38
2023-05-12T06:17:55.127Z,16.84
2023-05-12T06:20:23.634Z,17.19
2023-05-12T06:22:51.224Z,17.22
2023-05-12T06:25:18.974Z,17.25
2023-05-12T06:27:46.687Z,17.06
2023-05-12T06:30:16.169Z,17.25
2023-05-12T06:32:44.028Z,17.13
2023-05-12T06:35:11.982Z,17.12
2023-05-12T06:37:39.532Z,16.62
2023-05-12T06:40:07.792Z,17.12
2023-05-12T06:42:35.279Z,17.04
2023-05-12T06:45:10.091Z,17.39
2023-05-12T06:47:37.555Z,17.55
2023-05-12T06:50:05.469Z,17.53
2023-05-12T06:52:33.042Z,17.71
2023-05-12T06:55:00.457Z,17.67
2023-05-12T06:57:28.094Z,17.34
2023-05-12T06:59:55.584Z,17.15
2023-05-12T07:02:23.035Z,16.93
2023-05-12T07:04:50.674Z,17.27
2023-05-12T07:07:18.115Z,17.42
2023-05-12T07:09:46.316Z,17.55
2023-05-12T07:12:13.865Z,17.30
2023-05-12T07:14:41.548Z,17.71
2023-05-12T07:17:09.090Z,17.99
2023-05-12T07:19:36.875Z,18.63
2023-05-12T07:22:04.817Z,19.28
2023-05-12T07:24:32.415Z,19.30
2023-05-12T07:26:59.861Z,19.25
2023-05-12T07:29:27.367Z,19.41
2023-05-12T07:31:54.929Z,19.12
2023-05-12T07:34:22.504Z,19.22
2023-05-12T07:36:49.928Z,19.20
2023-05-12T07:39:19.726Z,19.28
2023-05-12T07:41:47.152Z,19.74
2023-05-12T07:44:14.643Z,20.33
2023-05-12T07:46:42.301Z,20.75
2023-05-12T07:49:09.817Z,20.60
2023-05-12T07:51:37.705Z,20.61
2023-05-12T07:54:05.360Z,20.46
2023-05-12T07:56:33.239Z,20.24
2023-05-12T07:59:00.617Z,20.21
2023-05-12T08:01:28.141Z,20.17
2023-05-12T08:03:55.861Z,20.97
2023-05-12T08:06:24.931Z,21.55
2023-05-12T08:08:52.796Z,21.32
2023-05-12T08:11:20.335Z,21.65
2023-05-12T08:13:47.789Z,21.89
2023-05-12T08:16:15.249Z,21.33
2023-05-12T08:18:42.784Z,21.66
2023-05-12T08:21:10.524Z,21.76
2023-05-12T08:23:38.211Z,21.61
2023-05-12T08:26:06.149Z,21.86
2023-05-12T08:28:33.661Z,22.13
2023-05-12T08:31:03.366Z,22.11
2023-05-12T08:33:32.259Z,22.24
2023-05-12T08:35:59.861Z,22.31
2023-05-12T08:38:27.424Z,22.34
2023-05-12T08:41:16.533Z,22.21
2023-05-12T08:43:51.192Z,22.54
2023-05-12T08:46:19.204Z,22.75
2023-05-12T08:48:49.298Z,22.75
2023-05-12T08:51:19.636Z,23.35
2023-05-12T08:53:49.452Z,23.29
2023-05-12T08:58:50.486Z,23.42
2023-05-12T09:01:18.598Z,23.33
2023-05-12T09:03:46.961Z,23.55
2023-05-12T09:06:14.998Z,24.27
2023-05-12T09:08:42.728Z,24.12
2023-05-12T09:11:13.720Z,24.41
2023-05-12T09:14:08.959Z,24.50
2023-05-12T09:16:43.112Z,25.10
2023-05-12T09:19:12.836Z,25.00
2023-05-12T09:21:42.273Z,25.30
2023-05-12T09:24:09.782Z,25.07
2023-05-12T09:26:51.816Z,25.43
2023-05-12T09:29:30.800Z,25.45
2023-05-12T09:32:03.508Z,25.70
2023-05-12T09:34:38.811Z,25.82
2023-05-12T09:37:08.096Z,26.29
2023-05-12T09:39:37.022Z,25.90
2023-05-12T09:42:05.379Z,26.16
2023-05-12T09:44:33.607Z,26.21
2023-05-12T09:47:08.255Z,26.24
2023-05-12T09:49:36.062Z,26.02
2023-05-12T09:52:05.324Z,26.26
2023-05-12T09:54:34.127Z,26.30
2023-05-12T09:57:05.276Z,26.47
2023-05-12T09:59:35.168Z,26.67
2023-05-12T10:02:06.729Z,26.31
2023-05-12T10:04:49.786Z,25.97
2023-05-12T10:07:22.848Z,25.97
2023-05-12T10:09:50.695Z,25.97
2023-05-12T10:12:18.399Z,26.22
2023-05-12T10:14:46.785Z,26.51
2023-05-12T10:17:15.501Z,26.38
2023-05-12T10:19:44.553Z,26.56
2023-05-12T10:22:12.177Z,26.38
2023-05-12T10:24:41.354Z,26.91
2023-05-12T10:27:09.066Z,25.91
2023-05-12T10:29:38.664Z,26.02
2023-05-12T10:32:07.324Z,26.10
2023-05-12T10:34:37.109Z,26.22
2023-05-12T10:37:11.411Z,25.83
2023-05-12T10:39:48.274Z,25.95
2023-05-12T10:42:26.657Z,25.50
2023-05-12T10:44:55.339Z,25.72
2023-05-12T10:47:29.763Z,25.77
2023-05-12T10:49:59.022Z,25.96
2023-05-12T10:52:26.493Z,26.01
2023-05-12T10:55:01.489Z,25.92
2023-05-12T10:57:32.335Z,25.88
2023-05-12T11:00:01.963Z,26.08
2023-05-12T11:02:34.660Z,26.04
2023-05-12T11:05:10.772Z,26.42
2023-05-12T11:07:39.879Z,26.43
2023-05-12T11:10:08.610Z,26.19
2023-05-12T11:12:37.615Z,26.04
2023-05-12T11:15:07.353Z,26.64
2023-05-12T11:17:40.421Z,26.61
2023-05-12T11:20:10.303Z,27.19
2023-05-12T11:22:37.859Z,27.32
2023-05-12T11:25:12.720Z,27.48
2023-05-12T11:27:46.041Z,27.81
2023-05-12T11:30:13.952Z,27.96
2023-05-12T11:32:41.840Z,27.79
2023-05-12T11:35:10.117Z,27.76
2023-05-12T11:37:42.156Z,27.85
2023-05-12T11:40:27.622Z,28.13
2023-05-12T11:42:56.437Z,28.50
2023-05-12T11:45:29.071Z,28.23
2023-05-12T11:48:09.128Z,28.30
2023-05-12T11:50:44.848Z,28.03
2023-05-12T11:53:15.298Z,27.98
2023-05-12T11:55:51.441Z,28.20
2023-05-12T11:58:22.083Z,27.12
2023-05-12T12:00:50.956Z,27.61
2023-05-12T12:03:19.047Z,26.74
2023-05-12T12:06:01.570Z,26.81
2023-05-12T12:08:29.355Z,27.73
2023-05-12T12:10:57.061Z,27.85
2023-05-12T12:13:26.393Z,28.14
2023-05-12T12:15:53.962Z,27.92
2023-05-12T12:18:21.740Z,28.02
2023-05-12T12:20:49.379Z,28.07
2023-05-12T12:23:16.943Z,28.42
2023-05-12T12:25:44.596Z,28.65
2023-05-12T12:28:12.494Z,28.53
2023-05-12T12:30:40.017Z,28.90
2023-05-12T12:33:07.599Z,28.58
2023-05-12T12:35:35.211Z,28.17
2023-05-12T12:38:02.787Z,28.67
2023-05-12T12:40:31.259Z,29.06
2023-05-12T12:42:58.719Z,29.09
2023-05-12T12:45:26.708Z,28.85
2023-05-12T12:47:55.234Z,28.93
2023-05-12T12:50:24.995Z,28.80
2023-05-12T12:52:53.305Z,29.08
2023-05-12T12:55:21.129Z,29.04
2023-05-12T12:57:48.850Z,28.93
2023-05-12T13:00:17.628Z,29.05
2023-05-12T13:02:45.627Z,29.40
2023-05-12T13:05:13.061Z,29.24
2023-05-12T13:07:40.744Z,29.22
2023-05-12T13:10:09.840Z,28.99
2023-05-12T13:12:37.454Z,28.97
2023-05-12T13:15:06.047Z,28.95
2023-05-12T13:17:34.677Z,28.96
2023-05-12T13:20:02.852Z,29.13
2023-05-12T13:22:31.512Z,28.83
2023-05-12T13:24:58.982Z,28.70
2023-05-12T13:27:26.492Z,28.90
2023-05-12T13:29:54.080Z,29.14
2023-05-12T13:32:21.545Z,29.31
2023-05-12T13:34:49.220Z,29.41
2023-05-12T13:37:16.856Z,29.36
2023-05-12T13:39:44.342Z,29.26
2023-05-12T13:42:11.835Z,29.54
2023-05-12T13:44:39.252Z,29.24
2023-05-12T13:47:09.758Z,29.57
2023-05-12T13:49:37.633Z,29.40
2023-05-12T13:52:05.391Z,29.55
2023-05-12T13:54:32.859Z,29.42
2023-05-12T13:57:01.146Z,29.81
2023-05-12T13:59:28.658Z,29.99
2023-05-12T14:01:56.190Z,29.67
2023-05-12T14:04:23.870Z,29.81
2023-05-12T14:06:54.267Z,29.44
2023-05-12T14:09:22.053Z,29.54
2023-05-12T14:11:49.513Z,29.26
2023-05-12T14:14:17.059Z,29.25
2023-05-12T14:16:44.647Z,29.43
2023-05-12T14:19:12.524Z,29.83
2023-05-12T14:21:41.511Z,29.46
2023-05-12T14:24:09.365Z,29.34
2023-05-12T14:26:36.966Z,29.50
2023-05-12T14:29:05.582Z,29.60
2023-05-12T14:31:34.405Z,29.74
2023-05-12T14:34:03.039Z,29.76
2023-05-12T14:36:30.513Z,29.93
2023-05-12T14:38:58.068Z,30.10
2023-05-12T14:41:26.109Z,30.20
2023-05-12T14:43:53.643Z,30.49
2023-05-12T14:46:21.365Z,30.27
2023-05-12T14:48:49.122Z,30.53
2023-05-12T14:51:16.611Z,30.47
2023-05-12T14:53:44.193Z,30.66
2023-05-12T14:56:11.615Z,30.65
2023-05-12T14:58:39.252Z,30.75
2023-05-12T15:01:09.281Z,30.62
2023-05-12T15:03:37.266Z,31.00
2023-05-12T15:06:08.063Z,30.96
2023-05-12T15:08:36.101Z,30.83
2023-05-12T15:11:03.723Z,31.02
2023-05-12T15:13:31.875Z,30.96
2023-05-12T15:15:59.390Z,31.63
2023-05-12T15:18:27.050Z,31.50
2023-05-12T15:20:54.647Z,31.79
2023-05-12T15:23:22.396Z,31.94
2023-05-12T15:25:49.901Z,32.54
2023-05-12T15:28:17.700Z,32.09
2023-05-12T15:30:45.807Z,32.42
2023-05-12T15:33:13.677Z,32.33
2023-05-12T15:35:41.996Z,32.27
2023-05-12T15:38:09.528Z,32.70
2023-05-12T15:40:37.517Z,32.65
2023-05-12T15:43:05.459Z,32.74
2023-05-12T15:45:33.022Z,32.70
2023-05-12T15:48:00.556Z,32.69
2023-05-12T15:50:28.111Z,32.88
2023-05-12T15:52:56.086Z,32.58
2023-05-12T15:55:24.059Z,32.76
2023-05-12T15:57:53.814Z,32.53
2023-05-12T16:00:22.931Z,32.69
2023-05-12T16:02:50.679Z,33.19
2023-05-12T16:05:18.625Z,32.95
2023-05-12T16:07:48.243Z,33.09
2023-05-12T16:10:16.289Z,33.13
2023-05-12T16:12:46.203Z,33.44
2023-05-12T16:15:14.143Z,33.42
2023-05-12T16:17:41.745Z,33.68
2023-05-12T16:20:10.547Z,33.47
2023-05-12T16:22:38.126Z,33.42
2023-05-12T16:25:05.971Z,33.59
2023-05-12T16:27:35.836Z,33.86
2023-05-12T16:30:04.254Z,33.76
2023-05-12T16:32:32.461Z,33.87
2023-05-12T16:35:01.039Z,34.04
2023-05-12T16:37:28.937Z,34.12
2023-05-12T16:39:56.443Z,33.79
2023-05-12T16:42:24.202Z,33.99
2023-05-12T16:44:55.068Z,34.21
2023-05-12T16:47:23.067Z,34.32
2023-05-12T16:49:53.894Z,34.84
2023-05-12T16:52:21.723Z,34.58
2023-05-12T16:54:49.248Z,34.62
2023-05-12T16:57:18.591Z,34.44
2023-05-12T16:59:46.286Z,34.85
2023-05-12T17:02:13.835Z,34.77
2023-05-12T17:04:41.832Z,35.00
2023-05-12T17:07:09.986Z,35.13
2023-05-12T17:09:37.474Z,35.08
2023-05-12T17:12:06.966Z,35.62
2023-05-12T17:14:37.510Z,35.47
2023-05-12T17:17:05.162Z,35.33
2023-05-12T17:19:33.395Z,35.47
2023-05-12T17:22:01.575Z,35.68
2023-05-12T17:24:29.133Z,35.69
2023-05-12T17:26:56.569Z,35.81
2023-05-12T17:29:24.106Z,35.53
2023-05-12T17:31:51.693Z,35.77
2023-05-12T17:34:19.360Z,35.82
2023-05-12T17:36:46.821Z,35.89
2023-05-12T17:39:16.256Z,35.93
2023-05-12T17:41:44.609Z,35.96
2023-05-12T17:44:12.093Z,35.98
2023-05-12T17:46:39.633Z,36.03
2023-05-12T17:49:07.351Z,36.16
2023-05-12T17:51:35.704Z,35.84
2023-05-12T17:54:04.297Z,35.94
2023-05-12T17:56:31.824Z,36.16
2023-05-12T17:58:59.303Z,35.92
2023-05-12T18:01:26.910Z,35.64
2023-05-12T18:03:54.810Z,36.09
2023-05-12T18:06:22.422Z,36.28
2023-05-12T18:08:50.030Z,36.25
2023-05-12T18:11:17.496Z,35.95
2023-05-12T18:13:44.923Z,36.33
2023-05-12T18:16:25.028Z,35.94
2023-05-12T18:18:55.954Z,35.76
2023-05-12T18:21:23.484Z,36.19
2023-05-12T18:23:50.945Z,36.19
2023-05-12T18:26:18.449Z,36.42
2023-05-12T18:28:45.932Z,36.84
2023-05-12T18:31:16.295Z,36.47
2023-05-12T18:33:47.704Z,36.84
2023-05-12T18:36:16.758Z,37.03
2023-05-12T18:38:44.911Z,36.83
2023-05-12T18:41:12.669Z,36.93
2023-05-12T18:43:40.209Z,36.84
2023-05-12T18:46:07.873Z,36.74
2023-05-12T18:48:35.431Z,37.05
2023-05-12T18:51:03.177Z,37.11
2023-05-12T18:53:30.860Z,37.12
2023-05-12T18:55:58.473Z,36.67
2023-05-12T18:58:26.057Z,36.58
2023-05-12T19:00:54.247Z,37.00
2023-05-12T19:03:22.190Z,37.18
2023-05-12T19:05:49.838Z,36.69
2023-05-12T19:08:19.352Z,36.97
2023-05-12T19:10:48.279Z,37.02
2023-05-12T19:13:15.827Z,37.15
2023-05-12T19:15:43.321Z,37.08
2023-05-12T19:18:10.982Z,37.24
2023-05-12T19:20:38.633Z,37.07
2023-05-12T19:23:06.184Z,37.76
2023-05-12T19:25:33.824Z,37.24
2023-05-12T19:28:01.677Z,37.66
2023-05-12T19:30:29.652Z,37.47
2023-05-12T19:32:57.608Z,37.80
2023-05-12T19:35:25.906Z,37.58
2023-05-12T19:37:53.408Z,37.83
2023-05-12T19:40:21.079Z,38.05
2023-05-12T19:42:48.662Z,38.18
2023-05-12T19:45:16.320Z,38.00
2023-05-12T19:47:43.844Z,37.98
2023-05-12T19:50:11.668Z,38.57
2023-05-12T19:52:39.535Z,38.20
2023-05-12T19:55:10.151Z,38.44
2023-05-12T19:57:38.497Z,38.12
2023-05-12T20:00:06.689Z,38.24
2023-05-12T20:02:39.831Z,37.81
2023-05-12T20:05:07.868Z,38.11
2023-05-12T20:07:35.381Z,38.36
2023-05-12T20:10:03.429Z,38.34
2023-05-12T20:12:31.890Z,38.54
2023-05-12T20:14:59.409Z,38.32
2023-05-12T20:17:27.051Z,38.85
2023-05-12T20:19:54.714Z,38.54
2023-05-12T20:22:22.587Z,39.12
2023-05-12T20:24:50.922Z,39.33
2023-05-12T20:27:18.370Z,39.45
2023-05-12T20:29:45.973Z,39.13
2023-05-12T20:32:14.464Z,38.78
2023-05-12T20:34:42.462Z,39.73
2023-05-12T20:37:10.370Z,39.24
2023-05-12T20:39:37.781Z,39.12
2023-05-12T20:42:06.396Z,38.97
2023-05-12T20:44:33.907Z,39.21
2023-05-12T20:47:02.000Z,39.27
2023-05-12T20:49:29.768Z,39.36
2023-05-12T20:51:57.204Z,39.88
2023-05-12T20:54:24.713Z,40.05
2023-05-12T20:56:52.272Z,39.89
2023-05-12T20:59:20.321Z,40.08
2023-05-12T21:01:48.009Z,39.62
2023-05-12T21:04:15.635Z,39.64
2023-05-12T21:06:43.298Z,38.99
2023-05-12T21:09:10.780Z,39.36
2023-05-12T21:11:38.338Z,39.65
2023-05-12T21:14:05.919Z,39.71
2023-05-12T21:16:33.683Z,39.36
2023-05-12T21:19:01.153Z,39.64
2023-05-12T21:21:28.984Z,39.87
2023-05-12T21:23:56.523Z,39.66
2023-05-12T21:26:24.185Z,40.45
2023-05-12T21:28:51.787Z,39.96
2023-05-12T21:31:19.280Z,40.03
2023-05-12T21:33:47.998Z,40.09
2023-05-12T21:36:16.323Z,40.65
2023-05-12T21:38:43.826Z,40.21
2023-05-12T21:41:11.425Z,40.78
2023-05-12T21:43:38.941Z,41.36
2023-05-12T21:46:06.539Z,41.15
2023-05-12T21:48:34.119Z,41.35
2023-05-12T21:51:03.327Z,41.80
2023-05-12T21:53:30.935Z,41.93
2023-05-12T21:55:58.516Z,41.95
2023-05-12T21:58:26.403Z,42.33
2023-05-12T22:00:54.229Z,42.15
2023-05-12T22:03:22.276Z,42.06
2023-05-12T22:05:50.251Z,42.39
2023-05-12T22:08:17.909Z,42.22
2023-05-12T22:10:45.480Z,41.92
2023-05-12T22:13:13.054Z,42.22
2023-05-12T22:15:40.868Z,42.01
2023-05-12T22:18:08.348Z,41.63
2023-05-12T22:20:35.996Z,41.90
2023-05-12T22:23:03.962Z,41.48
2023-05-12T22:25:31.580Z,41.25
2023-05-12T22:27:59.115Z,41.81
2023-05-12T22:30:26.709Z,41.53
2023-05-12T22:32:54.245Z,41.44
2023-05-12T22:35:21.834Z,41.50
2023-05-12T22:37:52.478Z,42.20
2023-05-12T22:40:23.381Z,41.38
2023-05-12T22:42:51.121Z,41.45
2023-05-12T22:45:18.850Z,41.65
2023-05-12T22:47:46.518Z,41.82
2023-05-12T22:50:14.007Z,42.06
2023-05-12T22:52:41.500Z,42.45
2023-05-12T22:55:09.767Z,42.27
2023-05-12T22:57:38.918Z,42.50
2023-05-12T23:00:08.452Z,43.10
2023-05-12T23:02:37.175Z,42.70
2023-05-12T23:05:05.041Z,42.88
2023-05-12T23:07:32.501Z,42.87
2023-05-12T23:10:00.028Z,42.62
2023-05-12T23:12:27.575Z,42.52
2023-05-12T23:14:55.137Z,42.78
2023-05-12T23:17:22.748Z,42.98
2023-05-12T23:19:52.477Z,42.90
2023-05-12T23:22:20.032Z,43.30
2023-05-12T23:24:47.693Z,43.41
2023-05-12T23:27:15.207Z,43.28
2023-05-12T23:29:42.697Z,43.39
2023-05-12T23:32:10.517Z,43.10
2023-05-12T23:34:40.570Z,43.11
2023-05-12T23:37:08.128Z,43.01
2023-05-12T23:39:36.036Z,43.16
2023-05-12T23:42:04.161Z,43.41
2023-05-12T23:44:31.721Z,43.48
2023-05-12T23:46:59.346Z,43.59
2023-05-12T23:49:27.638Z,43.59
2023-05-12T23:51:55.534Z,43.42
2023-05-12T23:54:23.126Z,43.54
2023-05-12T23:56:50.769Z,43.25
2023-05-12T23:59:18.352Z,42.92
